Whiting Field Naval Air Station South Airport Milton US
ICAO: KNDZ
IATA: NDZ
Category: Medium
Scheduled Services: No

Elevation: 177 ft
TransAlt. 18000 ft.

Airport Communications:
PENSACOLA APP/DEP:124.85
ATIS:27.357
CLNC DEL:35.56
GND:34.68
BASE OPS:23.37
PMSV METRO:31.695
TWR:121.4

KNDZ Zoom In..

Runways:

(A) RW 05 length 5997 ft width 200 ft
---- / hdg 49

(B) RW 14 length 6001 ft width 200 ft
---- / hdg 139

(C) RW 23 length 5997 ft width 200 ft
---- / hdg 229

(D) RW 32 length 6001 ft width 200 ft
ILS 110.55 / hdg 319

Location; KNDZ
Day. 17 / Time. 04.56 Zulu
* Altimeter: 30.05
* Temperature: 24° c. 75.2°f.
* Wind from: 000° Speed 00 kn.
Dewpoint: 24° c.
Visibility: 10 Statute Miles.
Clouds: Scattered 4400 ft.
Clouds: Broken 12000 ft.
Clouds: Broken 25000 ft.

KNDZ 170456Z 00000KT 10SM SCT044 BKN120 BKN250 24/24 A3005 RMK SLP160 T02390239


Wind - Calm.

 
 
jpsmedia.com for Web Design worldairports.se 2018   terms of use